Time;durP1;ratioP1;P1;durP2;ratioP2;P2;SDS_P1;SDS_P2;PMS_P1;PMS_P2;Temp;Humidity;BMP_temperature;BMP_pressure;BME280_temperature;BME280_humidity;BME280_pressure;Samples;Min_cycle;Max_cycle;Signal;HPM_P1;HPM_P2
2023/01/13 00:01:25;;;;;;;10.90;6.10;;;;;;;6.81;82.57;100035.98;109079;1256;97784;-53
2023/01/13 00:04:00;;;;;;;11.20;6.40;;;;;;;6.79;82.57;100038.83;109087;1256;88884;-53
2023/01/13 00:06:39;;;;;;;15.00;7.00;;;;;;;6.81;82.59;100040.86;109013;1256;94942;-54
2023/01/13 00:09:14;;;;;;;12.40;7.10;;;;;;;6.83;82.58;100037.73;109067;1256;82366;-52
2023/01/13 00:11:50;;;;;;;15.60;7.20;;;;;;;6.88;82.44;100037.77;109080;1256;83436;-52
2023/01/13 00:14:28;;;;;;;12.40;6.40;;;;;;;6.88;82.59;100031.30;109071;1256;98927;-53
2023/01/13 00:17:04;;;;;;;17.90;6.10;;;;;;;6.91;82.52;100032.90;109099;1256;88635;-54
2023/01/13 00:19:39;;;;;;;13.30;6.40;;;;;;;6.90;82.66;100032.17;109052;1256;94883;-54
2023/01/13 00:22:15;;;;;;;12.40;6.10;;;;;;;6.90;82.65;100030.55;109089;1256;79527;-54
2023/01/13 00:24:50;;;;;;;13.30;6.50;;;;;;;6.85;82.71;100031.28;109097;1256;81408;-53
2023/01/13 00:27:29;;;;;;;8.90;5.30;;;;;;;6.85;82.76;100038.77;109092;1256;98225;-53
2023/01/13 00:30:04;;;;;;;13.00;6.30;;;;;;;6.81;82.89;100034.95;109122;1256;89209;-54
2023/01/13 00:32:40;;;;;;;12.60;6.50;;;;;;;6.82;82.97;100033.41;109072;1256;94465;-54
2023/01/13 00:35:16;;;;;;;13.10;6.70;;;;;;;6.84;83.04;100033.55;109076;1256;80773;-52
2023/01/13 00:37:52;;;;;;;14.30;7.50;;;;;;;6.87;83.08;100029.77;109135;1256;79706;-51
2023/01/13 00:40:27;;;;;;;13.90;7.10;;;;;;;6.92;83.13;100026.71;109071;1256;98216;-50
2023/01/13 00:45:59;;;;;;;15.30;7.40;;;;;;;6.92;83.24;100018.13;109070;1256;95684;-54
2023/01/13 00:48:35;;;;;;;14.70;6.90;;;;;;;6.91;83.27;100015.58;109051;1256;81190;-54
2023/01/13 00:51:13;;;;;;;14.00;7.20;;;;;;;6.84;83.49;100018.66;109076;1256;82974;-54
2023/01/13 00:53:51;;;;;;;13.00;6.90;;;;;;;6.81;83.62;100018.44;109059;1256;98642;-54
2023/01/13 00:56:29;;;;;;;14.50;6.40;;;;;;;6.81;83.65;100021.73;109067;1256;88421;-53
2023/01/13 00:59:05;;;;;;;12.80;6.10;;;;;;;6.78;83.85;100020.77;109042;1256;94212;-52
2023/01/13 01:01:40;;;;;;;12.60;6.80;;;;;;;6.78;84.08;100025.40;109034;1256;81212;-53
2023/01/13 01:04:15;;;;;;;13.00;6.40;;;;;;;6.78;84.16;100022.09;109099;1256;82302;-53
2023/01/13 01:06:52;;;;;;;12.90;6.40;;;;;;;6.77;84.48;100025.20;109061;1256;98755;-53
2023/01/13 01:09:32;;;;;;;14.50;7.10;;;;;;;6.76;84.86;100017.42;109095;1256;89696;-52
2023/01/13 01:12:07;;;;;;;13.60;6.40;;;;;;;6.70;85.09;100009.91;109072;1256;95582;-52
2023/01/13 01:14:41;;;;;;;12.50;6.70;;;;;;;6.72;85.12;100010.64;109088;1256;81602;-51
2023/01/13 01:17:19;;;;;;;13.60;6.40;;;;;;;6.68;85.23;99999.20;109053;1260;82629;-51
2023/01/13 01:19:57;;;;;;;10.50;5.80;;;;;;;6.67;85.35;99997.20;109052;1256;98830;-53
2023/01/13 01:22:35;;;;;;;15.30;7.00;;;;;;;6.66;85.58;99991.80;109100;1256;89428;-53
2023/01/13 01:25:12;;;;;;;11.70;6.60;;;;;;;6.68;85.41;99989.74;109102;1256;95652;-51
2023/01/13 01:27:48;;;;;;;11.90;6.70;;;;;;;6.71;85.41;99992.86;109069;1256;80156;-51
2023/01/13 01:30:22;;;;;;;14.70;6.80;;;;;;;6.69;85.44;99988.61;109097;1256;82121;-54
2023/01/13 01:32:58;;;;;;;11.20;5.90;;;;;;;6.72;85.61;99988.16;109048;1256;99475;-54
2023/01/13 01:35:32;;;;;;;11.50;5.80;;;;;;;6.66;85.72;99987.61;109064;1255;89306;-53
2023/01/13 01:38:08;;;;;;;12.50;6.80;;;;;;;6.65;85.63;99988.19;109032;1256;95144;-54
2023/01/13 01:40:42;;;;;;;12.80;6.60;;;;;;;6.67;85.54;99987.08;109058;1256;82731;-54
2023/01/13 01:46:36;;;;;;;13.50;6.40;;;;;;;6.65;85.65;99975.56;109056;1256;97647;-51
2023/01/13 01:49:21;;;;;;;11.60;5.70;;;;;;;6.66;85.75;99969.09;108989;1256;86409;-53
2023/01/13 01:52:04;;;;;;;13.90;6.90;;;;;;;6.63;85.83;99963.17;109045;1256;95207;-54
2023/01/13 01:54:50;;;;;;;12.70;6.20;;;;;;;6.64;85.73;99961.95;109044;1256;80149;-54
2023/01/13 01:57:36;;;;;;;11.30;5.80;;;;;;;6.63;85.89;99957.73;109056;1256;82196;-54
2023/01/13 02:00:21;;;;;;;13.00;6.20;;;;;;;6.66;85.87;99955.10;109059;1256;99115;-55
2023/01/13 02:03:01;;;;;;;15.30;7.30;;;;;;;6.66;85.88;99954.27;109041;1257;87478;-55
2023/01/13 02:05:37;;;;;;;14.70;6.40;;;;;;;6.67;85.93;99951.45;109026;1256;94933;-54
2023/01/13 02:08:17;;;;;;;11.50;6.40;;;;;;;6.71;85.94;99949.55;108993;1257;80074;-53
2023/01/13 02:10:55;;;;;;;13.20;5.70;;;;;;;6.64;85.97;99942.80;109031;1259;82389;-53
2023/01/13 02:13:30;;;;;;;10.10;6.20;;;;;;;6.61;85.92;99939.46;109006;1257;98697;-53
2023/01/13 02:16:14;;;;;;;10.40;5.60;;;;;;;6.59;85.96;99936.78;108994;1261;87560;-51
2023/01/13 02:19:02;;;;;;;11.80;5.40;;;;;;;6.57;85.98;99938.27;109022;1257;95905;-52
2023/01/13 02:22:17;;;;;;;10.70;5.70;;;;;;;6.57;85.97;99938.30;108980;1260;81279;-53
2023/01/13 02:28:18;;;;;;;11.60;6.00;;;;;;;6.57;86.22;99939.10;103871;1295;600139;-54
2023/01/13 02:34:14;;;;;;;14.80;5.70;;;;;;;6.55;86.12;99934.02;106634;1266;83272;-54
2023/01/13 02:36:58;;;;;;;12.30;6.50;;;;;;;6.55;86.33;99932.92;106747;1266;93594;-55
2023/01/13 02:39:46;;;;;;;12.10;6.20;;;;;;;6.50;86.62;99926.42;106716;1265;89452;-55
2023/01/13 02:45:28;;;;;;;10.80;6.00;;;;;;;6.49;86.69;99921.56;106839;1262;81903;-53
2023/01/13 02:48:22;;;;;;;10.50;5.50;;;;;;;6.50;86.77;99924.19;106846;1263;82609;-53
2023/01/13 02:51:00;;;;;;;9.90;5.90;;;;;;;6.52;86.96;99922.29;106857;1262;97576;-53
2023/01/13 02:53:41;;;;;;;12.80;5.50;;;;;;;6.53;87.00;99921.23;106822;1263;88104;-52
2023/01/13 02:56:30;;;;;;;11.90;5.80;;;;;;;6.55;87.07;99920.90;106871;1263;92914;-51
2023/01/13 02:59:10;;;;;;;11.40;5.20;;;;;;;6.56;87.30;99920.09;106861;1262;80739;-53
2023/01/13 03:01:48;;;;;;;10.70;5.90;;;;;;;6.53;87.30;99920.38;106796;1262;80864;-54
2023/01/13 03:04:54;;;;;;;13.10;5.80;;;;;;;6.53;87.47;99915.79;107288;1256;98663;-52
2023/01/13 03:08:22;;;;;;;10.80;5.70;;;;;;;6.52;87.48;99910.91;107273;1257;87171;-51
2023/01/13 03:11:07;;;;;;;10.90;6.00;;;;;;;6.56;87.57;99908.11;107233;1256;94411;-52
2023/01/13 03:14:16;;;;;;;9.60;5.50;;;;;;;6.57;87.56;99903.75;107239;1257;80333;-52
2023/01/13 03:17:17;;;;;;;12.70;5.60;;;;;;;6.59;87.76;99901.36;107260;1259;82015;-53
2023/01/13 03:20:08;;;;;;;13.40;4.90;;;;;;;6.60;87.73;99900.72;107278;1256;96095;-55
2023/01/13 03:22:59;;;;;;;10.80;5.50;;;;;;;6.60;87.67;99898.33;107337;1260;88235;-55
2023/01/13 03:25:48;;;;;;;10.40;5.40;;;;;;;6.60;87.77;99902.13;107308;1256;94331;-55
2023/01/13 03:28:33;;;;;;;11.20;5.50;;;;;;;6.59;87.97;99896.29;107347;1256;82549;-55
2023/01/13 03:31:21;;;;;;;10.60;4.80;;;;;;;6.60;87.96;99901.80;107361;1258;82215;-55
2023/01/13 03:34:08;;;;;;;10.40;5.50;;;;;;;6.59;88.04;99901.49;107285;1256;98264;-53
2023/01/13 03:36:53;;;;;;;11.30;5.50;;;;;;;6.59;88.13;99899.02;107348;1256;89127;-53
2023/01/13 03:39:39;;;;;;;11.80;5.00;;;;;;;6.62;88.01;99894.73;107341;1258;94736;-51
2023/01/13 03:42:29;;;;;;;12.40;5.70;;;;;;;6.62;88.38;99893.14;107370;1259;81899;-52
2023/01/13 03:45:13;;;;;;;10.10;5.20;;;;;;;6.64;88.32;99894.70;107350;1259;82632;-55
2023/01/13 03:47:55;;;;;;;11.20;5.20;;;;;;;6.63;88.47;99894.27;107390;1256;97213;-56
2023/01/13 03:50:47;;;;;;;10.00;5.80;;;;;;;6.61;88.58;99888.52;107361;1255;87669;-52
2023/01/13 03:53:32;;;;;;;8.30;4.60;;;;;;;6.60;88.69;99888.50;107305;1256;93420;-52
2023/01/13 03:56:18;;;;;;;9.00;5.40;;;;;;;6.59;88.61;99885.29;107292;1257;81292;-54
2023/01/13 03:59:05;;;;;;;10.80;4.80;;;;;;;6.57;88.81;99884.02;107289;1258;83031;-53
2023/01/13 04:01:49;;;;;;;10.30;5.20;;;;;;;6.54;88.79;99886.26;107344;1257;98445;-55
2023/01/13 04:04:30;;;;;;;10.70;5.70;;;;;;;6.56;88.94;99888.98;107350;1256;89428;-52
2023/01/13 04:07:13;;;;;;;11.10;5.30;;;;;;;6.56;88.98;99883.26;107307;1256;95501;-53
2023/01/13 04:09:56;;;;;;;12.30;5.60;;;;;;;6.57;88.99;99886.41;107341;1258;81469;-55
2023/01/13 04:15:30;;;;;;;9.20;5.20;;;;;;;6.58;89.26;99878.26;107290;1257;98154;-52
2023/01/13 04:18:14;;;;;;;7.30;4.70;;;;;;;6.56;89.32;99884.91;107325;1256;88541;-54
2023/01/13 04:20:57;;;;;;;10.70;5.30;;;;;;;6.58;89.38;99876.24;107356;1256;94141;-54
2023/01/13 04:23:42;;;;;;;9.60;5.60;;;;;;;6.59;89.43;99880.80;107324;1256;81243;-54
2023/01/13 04:26:22;;;;;;;10.30;4.80;;;;;;;6.57;89.50;99880.31;107355;1258;83718;-51
2023/01/13 04:29:05;;;;;;;10.50;5.20;;;;;;;6.54;89.62;99877.17;107362;1256;97207;-52
2023/01/13 04:31:45;;;;;;;13.20;5.40;;;;;;;6.58;89.72;99873.95;107337;1256;88468;-53
2023/01/13 04:34:22;;;;;;;10.80;5.30;;;;;;;6.57;89.69;99871.32;107323;1256;95092;-53
2023/01/13 04:37:06;;;;;;;7.70;4.50;;;;;;;6.56;89.86;99869.61;107372;1256;81794;-54
2023/01/13 04:39:51;;;;;;;13.40;5.60;;;;;;;6.56;89.96;99869.48;107380;1257;83005;-50
2023/01/13 04:42:35;;;;;;;9.40;4.60;;;;;;;6.52;90.04;99868.09;107324;1257;97704;-51
2023/01/13 04:45:23;;;;;;;10.10;5.30;;;;;;;6.52;90.27;99868.49;107337;1256;88145;-55
2023/01/13 04:48:07;;;;;;;11.10;5.30;;;;;;;6.54;90.08;99865.77;107365;1257;96199;-55
2023/01/13 04:50:51;;;;;;;8.00;4.90;;;;;;;6.52;90.24;99867.17;107301;1256;80962;-51
2023/01/13 04:53:37;;;;;;;9.70;5.20;;;;;;;6.53;90.25;99866.88;107300;1258;80617;-52
2023/01/13 04:56:22;;;;;;;8.30;5.10;;;;;;;6.53;90.34;99866.41;107307;1256;98373;-51
2023/01/13 04:59:07;;;;;;;7.70;4.80;;;;;;;6.55;90.35;99862.20;107342;1257;88582;-52
2023/01/13 05:01:52;;;;;;;10.40;5.00;;;;;;;6.55;90.44;99862.77;107295;1260;94843;-52
2023/01/13 05:04:39;;;;;;;9.90;5.20;;;;;;;6.55;90.47;99864.72;107323;1257;79248;-53
2023/01/13 05:07:22;;;;;;;7.10;4.60;;;;;;;6.58;90.26;99863.89;107297;1257;82339;-53
2023/01/13 05:10:02;;;;;;;11.30;4.60;;;;;;;6.61;90.35;99868.94;107328;1256;96572;-51
2023/01/13 05:18:42;;;;;;;8.50;4.80;;;;;;;6.50;90.82;99861.23;107324;1257;80834;-52
2023/01/13 05:27:24;;;;;;;9.30;4.60;;;;;;;6.52;90.82;99863.05;107423;1259;88621;-52
2023/01/13 05:30:06;;;;;;;10.20;5.30;;;;;;;6.49;90.86;99866.52;107425;1260;94410;-56
2023/01/13 05:32:48;;;;;;;9.90;4.90;;;;;;;6.50;90.87;99866.52;107430;1256;79977;-56
2023/01/13 05:35:28;;;;;;;10.20;4.40;;;;;;;6.47;91.11;99861.69;107377;1260;83819;-55
2023/01/13 05:38:05;;;;;;;10.40;5.00;;;;;;;6.41;91.42;99864.89;107340;1259;96829;-55
2023/01/13 05:43:47;;;;;;;8.10;5.00;;;;;;;6.49;91.26;99859.68;107000;1263;94175;-53
2023/01/13 05:46:33;;;;;;;9.00;4.80;;;;;;;6.48;91.14;99862.10;107317;1258;82042;-55
2023/01/13 05:49:14;;;;;;;9.20;4.70;;;;;;;6.50;91.27;99869.45;107285;1255;84409;-55
2023/01/13 05:51:52;;;;;;;7.50;4.60;;;;;;;6.49;91.27;99873.61;107302;1254;97023;-53
2023/01/13 05:54:29;;;;;;;9.90;5.10;;;;;;;6.48;91.19;99874.79;107371;1258;88477;-53
2023/01/13 05:57:13;;;;;;;9.10;5.10;;;;;;;6.48;91.41;99880.20;107364;1256;92555;-54
2023/01/13 05:59:52;;;;;;;11.40;5.50;;;;;;;6.49;91.57;99882.92;107335;1260;81528;-54
2023/01/13 06:02:33;;;;;;;8.10;5.00;;;;;;;6.46;91.77;99882.42;107339;1257;82980;-53
2023/01/13 06:05:11;;;;;;;9.50;5.10;;;;;;;6.49;91.63;99881.86;107384;1259;97465;-54
2023/01/13 06:07:49;;;;;;;9.50;4.80;;;;;;;6.49;91.70;99881.11;107359;1258;87807;-54
2023/01/13 06:10:34;;;;;;;12.70;5.70;;;;;;;6.46;91.90;99883.98;107351;1259;95443;-54
2023/01/13 06:13:25;;;;;;;8.00;4.70;;;;;;;6.50;91.94;99888.42;107369;1254;81875;-53
2023/01/13 06:16:02;;;;;;;8.70;5.40;;;;;;;6.56;91.94;99888.29;107408;1257;82249;-54
2023/01/13 06:18:46;;;;;;;7.70;5.10;;;;;;;6.52;91.89;99893.65;107405;1258;97091;-55
2023/01/13 06:21:26;;;;;;;9.30;4.60;;;;;;;6.52;91.91;99888.34;107402;1254;88820;-55
2023/01/13 06:24:09;;;;;;;11.10;5.70;;;;;;;6.51;92.02;99891.70;107403;1259;95357;-53
2023/01/13 06:26:47;;;;;;;10.40;5.50;;;;;;;6.49;92.29;99890.94;107386;1258;80772;-52
2023/01/13 06:29:26;;;;;;;11.20;5.40;;;;;;;6.50;92.35;99892.28;107406;1254;82689;-53
2023/01/13 06:32:13;;;;;;;10.00;5.10;;;;;;;6.49;92.28;99890.61;107333;1259;97983;-53
2023/01/13 06:34:51;;;;;;;11.70;5.20;;;;;;;6.48;92.51;99886.29;107388;1258;88661;-52
2023/01/13 06:37:35;;;;;;;8.50;4.90;;;;;;;6.46;92.33;99887.23;107329;1254;93914;-53
2023/01/13 06:40:17;;;;;;;10.40;5.10;;;;;;;6.48;92.42;99891.11;107360;1257;81984;-51
2023/01/13 06:43:17;;;;;;;10.30;5.10;;;;;;;6.48;92.38;99890.55;107335;1255;80943;-52
2023/01/13 06:45:55;;;;;;;9.70;4.90;;;;;;;6.44;92.53;99894.60;107350;1254;97299;-54
2023/01/13 06:48:38;;;;;;;8.70;4.60;;;;;;;6.45;92.49;99892.38;107680;1256;88995;-55
2023/01/13 06:51:21;;;;;;;8.70;5.20;;;;;;;6.48;92.49;99893.23;107716;1252;95237;-53
2023/01/13 06:53:58;;;;;;;10.80;4.50;;;;;;;6.51;92.56;99896.38;107636;1256;81760;-53
2023/01/13 06:56:42;;;;;;;8.20;4.00;;;;;;;6.49;92.55;99896.31;107671;1256;81858;-52
2023/01/13 06:59:24;;;;;;;9.70;4.50;;;;;;;6.49;92.47;99894.73;107590;1256;96661;-54
2023/01/13 07:02:06;;;;;;;8.60;4.40;;;;;;;6.50;92.62;99891.21;107688;1255;88263;-54
2023/01/13 07:04:44;;;;;;;8.20;4.30;;;;;;;6.55;92.52;99897.86;107667;1251;93715;-55
2023/01/13 07:07:21;;;;;;;9.20;4.40;;;;;;;6.48;92.41;99893.80;107702;1251;81662;-55
2023/01/13 07:10:04;;;;;;;9.60;4.20;;;;;;;6.50;92.52;99896.41;107703;1255;82486;-55
2023/01/13 07:15:55;;;;;;;10.80;4.30;;;;;;;6.56;92.43;99892.59;107403;1257;89052;-51
2023/01/13 07:18:38;;;;;;;9.30;4.70;;;;;;;6.61;92.50;99896.28;107578;1252;93433;-51
2023/01/13 07:21:19;;;;;;;7.80;4.10;;;;;;;6.60;92.61;99890.83;107673;1255;82332;-54
2023/01/13 07:24:04;;;;;;;7.30;3.40;;;;;;;6.63;92.47;99893.36;107645;1251;82971;-53
2023/01/13 07:26:46;;;;;;;6.40;4.00;;;;;;;6.59;92.44;99892.71;107637;1251;98985;-51
2023/01/13 07:29:26;;;;;;;7.30;4.00;;;;;;;6.57;92.63;99895.34;107708;1256;87761;-53
2023/01/13 07:32:06;;;;;;;9.90;3.90;;;;;;;6.57;92.73;99893.33;107665;1256;94316;-52
2023/01/13 07:34:46;;;;;;;6.60;3.80;;;;;;;6.58;92.64;99895.70;107730;1251;81653;-56
2023/01/13 07:37:31;;;;;;;8.80;4.20;;;;;;;6.58;92.65;99894.86;107713;1251;82415;-56
2023/01/13 07:40:07;;;;;;;;;;;;;;;6.61;92.70;99897.92;107770;1251;97931;-54
2023/01/13 07:45:42;;;;;;;9.40;4.00;;;;;;;6.68;92.69;99894.98;107581;1257;94268;-56
2023/01/13 07:48:21;;;;;;;9.60;4.50;;;;;;;6.72;92.69;99895.85;107781;1251;79418;-57
2023/01/13 07:50:56;;;;;;;7.20;4.40;;;;;;;6.75;92.55;99895.13;107735;1251;81940;-53
2023/01/13 07:53:39;;;;;;;7.80;4.40;;;;;;;6.75;92.69;99892.35;107708;1255;97816;-53
2023/01/13 07:56:18;;;;;;;10.10;4.60;;;;;;;6.78;92.60;99893.16;107703;1251;88458;-53
2023/01/13 07:59:09;;;;;;;10.40;5.70;;;;;;;6.79;92.54;99894.03;107663;1257;95112;-53
2023/01/13 08:01:58;;;;;;;7.80;4.20;;;;;;;6.79;92.66;99893.23;107592;1253;82283;-55
2023/01/13 08:04:44;;;;;;;9.90;4.60;;;;;;;6.81;92.68;99895.50;107598;1253;82924;-54
2023/01/13 08:07:26;;;;;;;;;;;;;;;6.85;92.62;99892.75;107671;1256;98167;-54
2023/01/13 08:10:07;;;;;;;11.30;4.70;;;;;;;6.83;92.91;99896.92;107621;1256;88855;-53
2023/01/13 08:15:50;;;;;;;9.80;4.70;;;;;;;6.91;92.70;99898.65;107613;1254;82765;-56
2023/01/13 08:18:29;;;;;;;9.80;5.60;;;;;;;6.95;92.69;99897.79;107691;1251;81050;-55
2023/01/13 08:21:11;;;;;;;9.40;5.20;;;;;;;7.00;92.66;99896.50;107691;1251;97137;-52
2023/01/13 08:23:50;;;;;;;7.00;4.50;;;;;;;7.04;92.61;99898.77;107708;1251;89087;-51
2023/01/13 08:26:35;;;;;;;11.00;5.00;;;;;;;7.09;92.60;99898.86;107663;1251;94208;-52
2023/01/13 08:29:15;;;;;;;8.30;4.10;;;;;;;7.12;92.61;99901.56;107653;1252;80845;-54
2023/01/13 08:31:52;;;;;;;9.90;4.10;;;;;;;7.10;92.72;99901.02;107660;1251;81363;-54
2023/01/13 08:34:31;;;;;;;6.50;4.20;;;;;;;7.12;92.88;99901.02;107636;1251;96985;-56
2023/01/13 08:37:09;;;;;;;8.20;4.30;;;;;;;7.17;92.70;99902.80;107706;1251;86290;-56
2023/01/13 08:39:44;;;;;;;10.40;5.00;;;;;;;7.26;92.60;99905.31;107680;1251;94024;-57
2023/01/13 08:42:25;;;;;;;9.20;4.60;;;;;;;7.30;92.65;99904.48;107685;1251;81929;-56
2023/01/13 08:45:05;;;;;;;6.40;4.80;;;;;;;7.28;92.62;99903.77;107700;1251;82021;-57
2023/01/13 08:47:45;;;;;;;6.80;4.00;;;;;;;7.25;92.71;99902.83;107694;1251;99669;-57
2023/01/13 08:50:23;;;;;;;7.70;4.70;;;;;;;7.25;92.83;99910.77;107723;1251;87263;-57
2023/01/13 08:53:06;;;;;;;7.30;3.70;;;;;;;7.29;92.80;99914.39;107647;1251;92636;-57
2023/01/13 08:55:46;;;;;;;;;;;;;;;7.38;92.72;99914.65;107703;1256;82032;-53
2023/01/13 08:58:23;;;;;;;9.60;5.00;;;;;;;7.41;92.61;99914.42;107618;1251;81323;-54
2023/01/13 09:01:11;;;;;;;11.00;4.10;;;;;;;7.44;92.62;99912.45;107681;1257;99125;-57
2023/01/13 09:03:56;;;;;;;7.70;5.10;;;;;;;7.44;92.53;99914.27;107753;1251;85730;-57
2023/01/13 09:06:35;;;;;;;6.70;4.00;;;;;;;7.45;92.57;99916.20;107694;1256;94394;-53
2023/01/13 09:09:15;;;;;;;9.60;4.80;;;;;;;7.44;92.60;99919.61;107654;1251;80575;-54
2023/01/13 09:14:54;;;;;;;6.10;4.40;;;;;;;7.54;92.53;99919.77;107709;1256;97580;-56
2023/01/13 09:17:31;;;;;;;8.80;4.60;;;;;;;7.55;92.45;99913.52;107737;1251;88409;-57
2023/01/13 09:20:11;;;;;;;7.00;4.10;;;;;;;7.56;92.40;99910.39;107646;1255;94783;-55
2023/01/13 09:22:53;;;;;;;9.60;4.00;;;;;;;7.55;92.43;99906.61;107649;1251;79902;-54
2023/01/13 09:25:36;;;;;;;7.90;3.70;;;;;;;7.59;92.22;99901.29;107619;1251;83092;-58
2023/01/13 09:28:14;;;;;;;8.40;4.90;;;;;;;7.61;92.12;99899.18;107654;1251;99326;-58
2023/01/13 09:30:54;;;;;;;8.50;3.70;;;;;;;7.67;92.06;99896.88;107687;1251;89255;-53
2023/01/13 09:36:36;;;;;;;10.00;4.50;;;;;;;7.75;91.77;99898.65;107475;1251;80066;-55
2023/01/13 09:39:18;;;;;;;8.10;4.00;;;;;;;7.79;91.67;99897.34;107653;1256;82813;-53
2023/01/13 09:45:03;;;;;;;7.70;4.40;;;;;;;7.81;91.58;99894.18;107709;1251;88273;-54
2023/01/13 09:47:51;;;;;;;7.70;4.50;;;;;;;7.83;91.44;99887.55;107676;1251;95193;-52
2023/01/13 09:50:39;;;;;;;11.00;5.30;;;;;;;7.84;91.30;99886.46;107744;1251;80790;-52
2023/01/13 09:53:21;;;;;;;6.80;4.10;;;;;;;7.85;91.35;99883.30;107674;1251;82271;-53
2023/01/13 09:56:05;;;;;;;7.40;4.40;;;;;;;7.90;91.34;99886.33;107674;1254;99037;-54
2023/01/13 09:58:45;;;;;;;6.90;4.30;;;;;;;7.94;91.11;99888.13;107700;1254;87873;-54
2023/01/13 10:01:36;;;;;;;6.00;4.20;;;;;;;7.96;91.08;99883.50;107656;1254;92688;-53
2023/01/13 10:04:15;;;;;;;6.30;3.30;;;;;;;7.94;91.05;99879.56;107704;1254;80574;-55
2023/01/13 10:07:00;;;;;;;6.60;4.00;;;;;;;7.97;90.96;99883.13;107713;1252;83010;-55
2023/01/13 10:09:49;;;;;;;7.50;4.10;;;;;;;8.05;90.81;99875.05;107688;1254;99187;-55
2023/01/13 10:15:29;;;;;;;7.70;4.20;;;;;;;8.16;90.28;99872.27;107664;1254;94359;-55
2023/01/13 10:18:14;;;;;;;8.90;4.30;;;;;;;8.18;90.37;99868.94;107623;1252;80947;-55
2023/01/13 10:21:13;;;;;;;8.30;4.40;;;;;;;8.22;90.18;99867.02;107673;1254;82163;-54
2023/01/13 10:24:16;;;;;;;8.70;4.70;;;;;;;8.23;90.08;99865.50;107625;1254;98940;-54
2023/01/13 10:27:05;;;;;;;8.20;4.30;;;;;;;8.23;89.87;99860.11;107538;1257;89046;-55
2023/01/13 10:29:48;;;;;;;9.30;4.30;;;;;;;8.27;89.97;99862.50;107514;1252;92984;-55
2023/01/13 10:32:26;;;;;;;7.90;4.30;;;;;;;8.32;89.89;99860.13;107654;1254;81271;-54
2023/01/13 10:35:08;;;;;;;9.10;4.60;;;;;;;8.37;89.69;99854.72;107638;1256;83234;-55
2023/01/13 10:37:56;;;;;;;7.40;3.80;;;;;;;8.34;89.68;99856.48;107713;1251;98259;-55
2023/01/13 10:40:31;;;;;;;8.40;4.20;;;;;;;8.38;89.53;99853.00;107361;1251;471155;-54
2023/01/13 10:43:18;;;;;;;6.70;3.90;;;;;;;8.45;89.53;99850.59;107629;1254;95336;-54
2023/01/13 10:46:06;;;;;;;10.60;4.80;;;;;;;8.52;89.40;99854.41;107667;1254;81115;-55
2023/01/13 10:48:43;;;;;;;8.20;4.40;;;;;;;8.50;89.18;99854.46;107599;1251;82888;-55
2023/01/13 10:51:33;;;;;;;8.10;4.50;;;;;;;8.48;88.94;99847.61;107749;1251;98948;-57
2023/01/13 10:54:23;;;;;;;6.80;3.70;;;;;;;8.46;88.97;99845.98;107722;1253;89249;-54
2023/01/13 10:57:23;;;;;;;8.60;4.50;;;;;;;8.57;88.79;99849.61;107637;1251;95575;-55
2023/01/13 11:00:03;;;;;;;8.10;4.40;;;;;;;8.68;88.55;99849.41;107588;1253;77742;-54
2023/01/13 11:02:43;;;;;;;6.70;4.40;;;;;;;8.67;88.33;99842.78;107606;1251;81461;-54
2023/01/13 11:05:25;;;;;;;6.30;4.00;;;;;;;8.77;88.33;99839.23;107643;1251;97231;-52
2023/01/13 11:07:59;;;;;;;6.30;3.90;;;;;;;8.83;88.14;99834.90;107658;1251;88812;-54
2023/01/13 11:10:44;;;;;;;7.90;4.70;;;;;;;8.87;88.04;99833.79;107670;1257;95438;-54
2023/01/13 11:13:30;;;;;;;7.10;4.00;;;;;;;8.96;87.71;99832.96;107647;1251;80612;-55
2023/01/13 11:16:15;;;;;;;8.20;4.00;;;;;;;9.00;87.62;99832.21;107732;1251;83279;-53
2023/01/13 11:19:10;;;;;;;;;;;;;;;8.99;86.96;99833.54;107717;1251;98552;-54
2023/01/13 11:21:58;;;;;;;9.10;3.80;;;;;;;8.97;87.24;99836.58;107806;1251;87946;-57
2023/01/13 11:24:41;;;;;;;7.60;4.50;;;;;;;9.02;87.18;99838.58;107656;1251;94592;-53
2023/01/13 11:27:22;;;;;;;7.40;4.30;;;;;;;9.02;86.68;99838.95;107504;1254;80830;-53
2023/01/13 11:30:12;;;;;;;7.50;4.30;;;;;;;9.02;86.60;99838.04;107666;1251;82227;-54
2023/01/13 11:33:13;;;;;;;9.10;4.60;;;;;;;9.01;86.44;99833.75;107642;1252;97448;-55
2023/01/13 11:36:12;;;;;;;7.00;4.30;;;;;;;8.93;86.32;99828.21;107692;1251;90015;-57
2023/01/13 11:38:54;;;;;;;9.60;4.30;;;;;;;8.96;86.26;99827.91;107672;1251;94229;-56
2023/01/13 11:41:40;;;;;;;7.20;4.30;;;;;;;9.02;86.07;99828.88;107609;1251;80949;-53
2023/01/13 11:44:28;;;;;;;14.00;6.10;;;;;;;9.07;85.90;99828.59;107703;1256;81333;-54
2023/01/13 11:47:03;;;;;;;;;;;;;;;9.10;85.90;99828.95;107706;1251;97904;-55
2023/01/13 11:49:49;;;;;;;7.90;4.90;;;;;;;9.10;85.72;99821.52;107737;1254;87894;-55
2023/01/13 11:52:51;;;;;;;6.70;4.30;;;;;;;9.09;85.51;99820.27;107695;1253;95598;-55
2023/01/13 11:55:53;;;;;;;8.10;4.50;;;;;;;9.05;85.33;99818.04;107757;1254;80642;-57
2023/01/13 11:59:00;;;;;;;7.20;4.40;;;;;;;8.93;85.27;99813.71;107790;1254;82653;-57
2023/01/13 12:02:14;;;;;;;7.20;4.20;;;;;;;8.89;85.22;99814.86;107616;1251;99521;-54
2023/01/13 12:05:03;;;;;;;8.60;4.20;;;;;;;8.86;85.29;99813.31;107763;1252;87637;-53
2023/01/13 12:07:59;;;;;;;6.80;4.60;;;;;;;8.88;85.52;99810.39;107629;1251;95081;-53
2023/01/13 12:11:05;;;;;;;5.60;4.10;;;;;;;8.94;85.30;99807.16;107654;1254;81729;-56
2023/01/13 12:14:03;;;;;;;7.30;4.70;;;;;;;8.97;85.31;99807.44;107715;1251;83456;-56
2023/01/13 12:16:47;;;;;;;7.30;4.10;;;;;;;8.96;84.90;99807.35;107603;1251;99005;-53
2023/01/13 12:19:30;;;;;;;7.30;4.10;;;;;;;9.00;85.15;99807.77;107655;1254;88449;-54
2023/01/13 12:22:25;;;;;;;8.20;4.70;;;;;;;9.04;85.13;99808.17;107646;1256;95719;-53
2023/01/13 12:25:14;;;;;;;6.40;4.30;;;;;;;9.02;84.93;99813.66;107692;1252;80366;-54
2023/01/13 12:27:56;;;;;;;8.70;4.40;;;;;;;8.96;84.79;99811.70;107579;1253;81641;-53
2023/01/13 12:30:42;;;;;;;6.80;4.10;;;;;;;8.96;84.66;99814.69;107608;1253;98649;-56
2023/01/13 12:33:36;;;;;;;8.00;4.60;;;;;;;8.97;84.68;99809.10;107701;1251;89104;-56
2023/01/13 12:36:27;;;;;;;7.00;4.20;;;;;;;8.97;84.57;99809.48;107675;1251;95508;-54
2023/01/13 12:39:16;;;;;;;10.60;4.40;;;;;;;8.96;84.65;99808.80;107729;1256;80785;-53
2023/01/13 12:45:27;;;;;;;8.40;4.80;;;;;;;8.92;84.40;99804.88;107675;1253;98358;-53
2023/01/13 12:48:36;;;;;;;7.10;4.20;;;;;;;8.98;84.47;99809.33;107625;1254;87366;-53
2023/01/13 12:51:27;;;;;;;5.70;3.70;;;;;;;9.12;84.58;99806.66;107677;1253;93790;-53
2023/01/13 12:54:56;;;;;;;6.20;3.70;;;;;;;9.16;84.41;99809.48;107658;1255;81277;-54
2023/01/13 12:57:34;;;;;;;8.90;4.20;;;;;;;9.20;84.13;99800.11;107699;1251;82207;-54
2023/01/13 13:00:20;;;;;;;7.10;4.00;;;;;;;9.24;84.16;99802.16;107662;1251;96470;-53
2023/01/13 13:03:27;;;;;;;8.80;5.50;;;;;;;9.24;83.90;99803.48;107748;1251;86076;-53
2023/01/13 13:06:21;;;;;;;8.50;4.30;;;;;;;9.20;83.76;99808.40;107702;1251;95532;-56
2023/01/13 13:09:18;;;;;;;6.60;4.10;;;;;;;9.17;83.87;99809.20;107721;1251;81420;-54
2023/01/13 13:15:25;;;;;;;9.10;4.80;;;;;;;9.07;83.70;99818.52;107421;1257;97594;-53
2023/01/13 13:18:30;;;;;;;7.30;4.40;;;;;;;9.05;83.73;99817.55;107682;1253;87063;-53
2023/01/13 13:21:08;;;;;;;8.70;4.50;;;;;;;9.02;83.86;99816.52;107679;1252;93875;-53
2023/01/13 13:24:10;;;;;;;8.40;4.60;;;;;;;9.02;83.91;99819.97;107662;1251;81243;-53
2023/01/13 13:26:46;;;;;;;7.00;4.80;;;;;;;8.95;83.82;99823.68;107643;1251;82133;-54
2023/01/13 13:29:49;;;;;;;8.40;4.60;;;;;;;8.94;83.83;99823.29;107687;1251;99207;-54
2023/01/13 13:33:03;;;;;;;9.80;5.10;;;;;;;8.89;83.75;99821.63;107708;1251;88352;-54
2023/01/13 13:36:02;;;;;;;7.00;3.90;;;;;;;8.88;83.79;99820.84;107668;1251;93711;-56
2023/01/13 13:48:25;;;;;;;6.90;4.40;;;;;;;8.90;83.76;99825.00;107618;1251;87806;-54
2023/01/13 13:51:21;;;;;;;10.00;4.10;;;;;;;8.87;83.64;99824.13;107645;1256;95002;-53
2023/01/13 13:54:01;;;;;;;7.80;4.40;;;;;;;8.77;83.78;99822.66;107640;1251;81035;-54
2023/01/13 13:56:49;;;;;;;6.30;4.30;;;;;;;8.77;83.88;99826.60;107681;1251;79868;-56
2023/01/13 13:59:32;;;;;;;6.70;4.20;;;;;;;8.77;83.81;99830.08;107757;1252;98990;-55